Airfield :
LOGIN :

Register | Disclaimer

   EN    FR    IT 

 










Legend :    VFR   Marginal VFR   IFR   Intensive IFR   Very Intensive IFR
Visi :
Ceiling :
>= 8 km
>= 3000ft
5 to 8 km
1000 to 3000 ft
1500m to 5 km
500 to 1000 ft
800 to 1500m
200 to 500 ft
< 800m
< 200 ft
Symbols :   Thunderstorms  Fog  Heavy snow  Heavy precipitations  Wind > 20 kt
SIGMETs :     Misc.  Thunderstorms  Icing  Turbulence  Mountain Waves  Volcanic Ashes






- Airport Elevation : 424 ft
- IATA code : QGY


LHPR - Györ Per

CURRENT METAR :
  • 211745Z AUTO VRB03KT 9999 -SHRA NSC 14/07 Q1012

EXPIRED METARs :
  • 211715Z AUTO VRB02KT 9999 -SHRA NSC 15/06 Q1012
  • 211645Z AUTO 24005KT 180V300 9999 -SHRA NSC 15/07 Q1012 NOSIG
  • 211615Z AUTO 27009KT 240V310 9999 -SHRA NSC 15/07 Q1012 NOSIG
  • 211545Z AUTO 27017KT 240V310 9999 -SHRA NSC 16/06 Q1011 NOSIG
  • 211515Z AUTO 30017G28KT 260V340 9999 -SHRA FEW027 OVC042 17/06 Q1011 NOSIG

TAF TAF LHPR
Valid from the 21 at 18:00 until the 22 at 03:00 UTC


211715Z 2118/2203 24005KT CAVOK
TEMPO 2118/2121 8000 -RA SCT035 BKN070



MET'MAP, your aeronautical weather chart ! - Copyright ORBIFLY December 2007 - Disclaimer

ORBIFLY MET'MAP TEAM :

Programming & Development : Alexandra Zaïnal
Concept & original design : Baudouin d'Aumeries
Assistance for programming : Marc-Olivier Méhu
Technical & hardware support : Manuel Goepfert

Contact : metmap@orbifly.com




SOURCES & CREDITS :

   NOAA